createdAt,value
2018-06-14T00:00:11.339Z,0.30
2018-06-14T00:02:38.742Z,0.70
2018-06-14T00:05:06.161Z,0.40
2018-06-14T00:07:33.617Z,0.60
2018-06-14T00:10:00.984Z,1.50
2018-06-14T00:12:28.487Z,0.63
2018-06-14T00:14:56.015Z,0.73
2018-06-14T00:17:23.504Z,0.30
2018-06-14T00:19:50.983Z,1.40
2018-06-14T00:22:18.666Z,0.50
2018-06-14T00:24:46.431Z,0.40
2018-06-14T00:27:13.915Z,0.57
2018-06-14T00:29:41.956Z,0.40
2018-06-14T00:32:09.406Z,0.60
2018-06-14T00:34:36.807Z,0.93
2018-06-14T00:37:04.414Z,0.40
2018-06-14T00:39:31.810Z,0.50
2018-06-14T00:41:59.239Z,1.03
2018-06-14T00:44:26.711Z,1.60
2018-06-14T00:46:54.152Z,0.50
2018-06-14T00:49:22.159Z,0.50
2018-06-14T00:51:49.579Z,0.50
2018-06-14T00:54:17.470Z,0.63
2018-06-14T00:56:50.739Z,0.33
2018-06-14T00:59:18.267Z,0.73
2018-06-14T01:01:46.271Z,0.50
2018-06-14T01:04:13.675Z,0.50
2018-06-14T01:06:41.183Z,0.60
2018-06-14T01:09:09.559Z,0.50
2018-06-14T01:11:36.955Z,0.50
2018-06-14T01:14:04.475Z,0.60
2018-06-14T01:16:31.986Z,0.60
2018-06-14T01:18:59.355Z,0.60
2018-06-14T01:21:26.756Z,0.40
2018-06-14T01:23:54.299Z,0.40
2018-06-14T01:26:21.825Z,0.50
2018-06-14T01:28:49.261Z,0.70
2018-06-14T01:31:16.665Z,1.13
2018-06-14T01:33:44.132Z,0.40
2018-06-14T01:36:11.507Z,0.60
2018-06-14T01:38:38.928Z,1.17
2018-06-14T01:41:06.295Z,2.10
2018-06-14T01:43:33.659Z,0.80
2018-06-14T01:46:01.602Z,0.67
2018-06-14T01:48:29.179Z,0.83
2018-06-14T01:50:56.555Z,1.20
2018-06-14T01:53:23.930Z,1.40
2018-06-14T01:55:51.318Z,0.60
2018-06-14T01:58:18.784Z,0.50
2018-06-14T02:00:46.159Z,1.17
2018-06-14T02:03:14.949Z,0.60
2018-06-14T02:05:42.339Z,0.40
2018-06-14T02:08:09.723Z,0.40
2018-06-14T02:10:37.105Z,0.50
2018-06-14T02:13:04.703Z,0.47
2018-06-14T02:15:32.131Z,1.50
2018-06-14T02:18:00.039Z,0.63
2018-06-14T02:20:27.969Z,0.40
2018-06-14T02:22:55.371Z,0.70
2018-06-14T02:25:23.215Z,0.77
2018-06-14T02:27:50.947Z,1.70
2018-06-14T02:30:18.359Z,0.57
2018-06-14T02:32:45.762Z,0.50
2018-06-14T02:35:13.308Z,0.80
2018-06-14T02:37:41.724Z,1.43
2018-06-14T02:40:11.612Z,0.50
2018-06-14T02:42:39.189Z,0.63
2018-06-14T02:45:06.935Z,0.93
2018-06-14T02:47:34.374Z,0.77
2018-06-14T02:50:02.077Z,0.93
2018-06-14T02:52:29.511Z,0.57
2018-06-14T02:54:57.551Z,0.63
2018-06-14T02:57:25.036Z,1.00
2018-06-14T02:59:52.499Z,2.77
2018-06-14T03:02:20.004Z,0.60
2018-06-14T03:04:47.428Z,1.27
2018-06-14T03:07:19.092Z,0.70
2018-06-14T03:09:46.622Z,3.33
2018-06-14T03:12:14.083Z,0.70
2018-06-14T03:14:42.203Z,1.27
2018-06-14T03:17:09.610Z,0.60
2018-06-14T03:19:37.063Z,0.90
2018-06-14T03:22:04.563Z,1.63
2018-06-14T03:24:31.999Z,0.70
2018-06-14T03:26:59.407Z,0.57
2018-06-14T03:29:26.827Z,0.60
2018-06-14T03:31:54.215Z,0.50
2018-06-14T03:34:22.300Z,0.70
2018-06-14T03:36:49.748Z,1.10
2018-06-14T03:39:17.368Z,0.87
2018-06-14T03:41:44.820Z,1.23
2018-06-14T03:44:12.256Z,0.50
2018-06-14T03:46:40.012Z,0.93
2018-06-14T03:49:07.421Z,0.60
2018-06-14T03:51:34.851Z,0.40
2018-06-14T03:54:02.243Z,0.50
2018-06-14T03:56:29.627Z,0.80
2018-06-14T03:58:56.996Z,0.60
2018-06-14T04:01:24.371Z,0.60
2018-06-14T04:03:52.552Z,0.60
2018-06-14T04:06:19.945Z,0.50
2018-06-14T04:08:48.046Z,0.60
2018-06-14T04:11:16.027Z,0.93
2018-06-14T04:13:43.662Z,0.80
2018-06-14T04:16:11.066Z,0.50
2018-06-14T04:18:39.231Z,0.70
2018-06-14T04:21:06.603Z,0.70
2018-06-14T04:23:34.812Z,0.93
2018-06-14T04:26:02.483Z,0.70
2018-06-14T04:28:29.879Z,0.60
2018-06-14T04:30:57.259Z,0.70
2018-06-14T04:33:24.792Z,0.60
2018-06-14T04:35:52.841Z,0.60
2018-06-14T04:38:20.283Z,0.70
2018-06-14T04:40:47.787Z,0.60
2018-06-14T04:43:16.163Z,1.57
2018-06-14T04:45:43.593Z,0.70
2018-06-14T04:48:12.100Z,0.73
2018-06-14T04:50:40.727Z,0.60
2018-06-14T04:53:08.139Z,0.60
2018-06-14T04:55:36.139Z,0.63
2018-06-14T04:58:03.743Z,1.33
2018-06-14T05:00:31.911Z,1.03
2018-06-14T05:02:59.483Z,0.70
2018-06-14T05:05:27.052Z,0.60
2018-06-14T05:07:54.439Z,0.60
2018-06-14T05:10:22.828Z,0.73
2018-06-14T05:12:51.930Z,0.60
2018-06-14T05:15:19.560Z,2.17
2018-06-14T05:17:46.979Z,0.60
2018-06-14T05:20:15.079Z,0.57
2018-06-14T05:22:43.450Z,1.87
2018-06-14T05:25:10.861Z,0.80
2018-06-14T05:27:38.362Z,1.80
2018-06-14T05:30:05.847Z,0.80
2018-06-14T05:32:33.277Z,1.00
2018-06-14T05:35:03.669Z,0.53
2018-06-14T05:37:31.279Z,0.67
2018-06-14T05:39:59.096Z,0.70
2018-06-14T05:42:26.530Z,0.80
2018-06-14T05:44:53.954Z,1.13
2018-06-14T05:47:21.416Z,0.70
2018-06-14T05:49:48.895Z,1.50
2018-06-14T05:52:16.259Z,2.83
2018-06-14T05:54:43.628Z,0.63
2018-06-14T05:57:11.600Z,2.07
2018-06-14T05:59:39.579Z,1.40
2018-06-14T06:02:07.075Z,1.17
2018-06-14T06:04:34.532Z,0.70
2018-06-14T06:07:01.975Z,0.77
2018-06-14T06:09:29.960Z,0.53
2018-06-14T06:11:58.389Z,0.70
2018-06-14T06:14:26.746Z,0.60
2018-06-14T06:16:54.370Z,0.93
2018-06-14T06:19:22.244Z,0.60
2018-06-14T06:21:49.627Z,1.07
2018-06-14T06:24:17.073Z,0.70
2018-06-14T06:26:44.859Z,0.73
2018-06-14T06:29:12.447Z,2.13
2018-06-14T06:31:40.415Z,1.53
2018-06-14T06:34:07.823Z,0.80
2018-06-14T06:36:35.520Z,2.00
2018-06-14T06:39:04.514Z,1.90
2018-06-14T06:41:31.939Z,1.00
2018-06-14T06:43:59.371Z,3.17
2018-06-14T06:46:26.748Z,0.90
2018-06-14T06:48:54.259Z,2.20
2018-06-14T06:51:21.787Z,1.77
2018-06-14T06:53:49.474Z,0.90
2018-06-14T06:56:16.879Z,2.07
2018-06-14T06:58:44.360Z,1.10
2018-06-14T07:01:11.843Z,0.93
2018-06-14T07:03:39.262Z,0.90
2018-06-14T07:06:06.716Z,1.13
2018-06-14T07:08:34.215Z,0.80
2018-06-14T07:11:01.684Z,1.07
2018-06-14T07:13:29.095Z,0.80
2018-06-14T07:15:56.515Z,2.97
2018-06-14T07:18:24.031Z,1.00
2018-06-14T07:20:51.398Z,1.00
2018-06-14T07:23:18.979Z,2.60
2018-06-14T07:25:46.347Z,3.53
2018-06-14T07:28:13.755Z,1.63
2018-06-14T07:30:41.119Z,4.30
2018-06-14T07:33:08.516Z,1.83
2018-06-14T07:35:36.024Z,2.43
2018-06-14T07:38:03.699Z,1.27
2018-06-14T07:40:31.196Z,1.70
2018-06-14T07:42:58.636Z,1.83
2018-06-14T07:45:26.087Z,4.00
2018-06-14T07:47:53.571Z,1.93
2018-06-14T07:50:21.001Z,1.40
2018-06-14T07:52:48.444Z,1.60
2018-06-14T07:55:15.911Z,2.93
2018-06-14T07:57:43.303Z,1.80
2018-06-14T08:00:10.809Z,1.87
2018-06-14T08:02:38.299Z,2.00
2018-06-14T08:05:05.723Z,2.30
2018-06-14T08:07:33.183Z,1.87
2018-06-14T08:10:00.728Z,3.10
2018-06-14T08:12:28.744Z,2.10
2018-06-14T08:14:56.216Z,2.97
2018-06-14T08:17:24.067Z,2.07
2018-06-14T08:19:51.712Z,2.97
2018-06-14T08:22:19.149Z,3.47
2018-06-14T08:24:46.615Z,1.80
2018-06-14T08:27:14.023Z,1.70
2018-06-14T08:29:41.523Z,1.73
2018-06-14T08:32:08.915Z,1.93
2018-06-14T08:34:36.439Z,1.90
2018-06-14T08:37:04.203Z,1.93
2018-06-14T08:39:31.719Z,2.00
2018-06-14T08:41:59.088Z,1.90
2018-06-14T08:44:26.491Z,2.13
2018-06-14T08:46:53.887Z,3.73
2018-06-14T08:49:21.338Z,2.63
2018-06-14T08:51:48.725Z,2.13
2018-06-14T08:54:16.099Z,2.60
2018-06-14T08:56:43.507Z,4.60
2018-06-14T08:59:11.007Z,2.43
2018-06-14T09:01:38.475Z,1.90
2018-06-14T09:04:05.918Z,1.97
2018-06-14T09:06:34.023Z,2.00
2018-06-14T09:09:01.500Z,2.10
2018-06-14T09:11:28.948Z,1.93
2018-06-14T09:13:56.327Z,1.90
2018-06-14T09:16:23.759Z,2.10
2018-06-14T09:18:52.811Z,2.10
2018-06-14T09:21:20.267Z,3.33
2018-06-14T09:23:47.731Z,2.27
2018-06-14T09:26:15.888Z,2.40
2018-06-14T09:28:43.873Z,2.70
2018-06-14T09:31:11.327Z,4.33
2018-06-14T09:33:38.743Z,5.73
2018-06-14T09:36:06.580Z,3.13
2018-06-14T09:38:33.963Z,2.17
2018-06-14T09:41:01.981Z,3.13
2018-06-14T09:43:29.535Z,2.43
2018-06-14T09:45:57.019Z,3.20
2018-06-14T09:48:24.407Z,2.87
2018-06-14T09:50:51.831Z,2.23
2018-06-14T09:53:19.451Z,3.10
2018-06-14T09:55:47.435Z,2.57
2018-06-14T09:58:14.928Z,5.60
2018-06-14T10:00:42.303Z,3.83
2018-06-14T10:03:09.812Z,2.20
2018-06-14T10:05:37.199Z,2.30
2018-06-14T10:08:04.947Z,2.50
2018-06-14T10:10:32.572Z,2.40
2018-06-14T10:13:00.551Z,2.20
2018-06-14T10:15:28.011Z,2.50
2018-06-14T10:17:55.411Z,2.50
2018-06-14T10:20:22.923Z,4.23
2018-06-14T10:22:50.375Z,3.03
2018-06-14T10:25:17.776Z,2.43
2018-06-14T10:27:45.207Z,2.10
2018-06-14T10:30:12.663Z,2.53
2018-06-14T10:32:40.219Z,6.37
2018-06-14T10:35:07.695Z,2.20
2018-06-14T10:37:35.131Z,2.47
2018-06-14T10:40:02.519Z,4.17
2018-06-14T10:42:29.902Z,2.83
2018-06-14T10:44:57.585Z,2.07
2018-06-14T10:47:24.995Z,2.10
2018-06-14T10:49:52.363Z,4.00
2018-06-14T10:52:19.799Z,1.95
2018-06-14T10:54:47.320Z,2.33
2018-06-14T10:57:14.796Z,2.30
2018-06-14T10:59:42.268Z,2.40
2018-06-14T11:02:09.655Z,3.55
2018-06-14T11:04:37.106Z,2.00
2018-06-14T11:07:04.607Z,2.43
2018-06-14T11:09:31.979Z,2.50
2018-06-14T11:12:01.858Z,1.80
2018-06-14T11:14:29.323Z,2.73
2018-06-14T11:16:56.905Z,2.00
2018-06-14T11:19:24.275Z,2.10
2018-06-14T11:21:51.844Z,3.13
2018-06-14T11:24:19.272Z,2.23
2018-06-14T11:26:46.719Z,2.60
2018-06-14T11:29:14.188Z,2.10
2018-06-14T11:31:41.646Z,1.97
2018-06-14T11:34:09.168Z,2.27
2018-06-14T11:36:36.561Z,2.43
2018-06-14T11:39:04.650Z,2.43
2018-06-14T11:41:32.020Z,2.13
2018-06-14T11:43:59.707Z,2.30
2018-06-14T11:46:27.118Z,3.03
2018-06-14T11:48:54.500Z,2.87
2018-06-14T11:51:21.883Z,2.30
2018-06-14T11:53:49.850Z,3.73
2018-06-14T11:56:17.248Z,3.17
2018-06-14T11:58:46.506Z,2.50
2018-06-14T12:01:13.939Z,2.53
2018-06-14T12:03:42.635Z,2.70
2018-06-14T12:06:11.231Z,2.37
2018-06-14T12:08:40.961Z,2.30
2018-06-14T12:11:10.581Z,2.20
2018-06-14T12:13:40.192Z,2.13
2018-06-14T12:16:10.519Z,2.90
2018-06-14T12:18:40.660Z,3.50
2018-06-14T12:21:10.496Z,4.33
2018-06-14T12:23:40.224Z,2.63
2018-06-14T12:26:09.994Z,2.30
2018-06-14T12:28:39.987Z,2.20
2018-06-14T12:31:10.001Z,2.27
2018-06-14T12:33:40.153Z,2.40
2018-06-14T12:36:09.670Z,2.10
2018-06-14T12:38:38.760Z,2.67
2018-06-14T12:41:08.591Z,2.17
2018-06-14T12:43:38.326Z,2.27
2018-06-14T12:46:07.629Z,4.70
2018-06-14T12:48:36.933Z,2.73
2018-06-14T12:51:07.135Z,2.97
2018-06-14T12:53:36.475Z,2.53
2018-06-14T12:56:04.234Z,4.10
2018-06-14T12:58:31.751Z,2.57
2018-06-14T13:00:59.171Z,2.50
2018-06-14T13:03:27.449Z,2.70
2018-06-14T13:05:54.822Z,2.20
2018-06-14T13:08:22.447Z,2.80
2018-06-14T13:10:50.285Z,2.77
2018-06-14T13:13:17.699Z,2.70
2018-06-14T13:15:45.107Z,2.70
2018-06-14T13:18:12.495Z,2.67
2018-06-14T13:20:40.647Z,2.40
2018-06-14T13:23:08.023Z,3.70
2018-06-14T13:25:35.808Z,2.90
2018-06-14T13:28:03.314Z,2.43
2018-06-14T13:30:30.692Z,2.57
2018-06-14T13:32:58.069Z,3.47
2018-06-14T13:35:25.689Z,2.43
2018-06-14T13:37:53.217Z,2.50
2018-06-14T13:40:20.739Z,4.13
2018-06-14T13:42:48.424Z,2.40
2018-06-14T13:45:15.825Z,2.77
2018-06-14T13:47:43.291Z,2.70
2018-06-14T13:50:10.739Z,2.43
2018-06-14T13:52:38.195Z,4.23
2018-06-14T13:55:05.652Z,2.87
2018-06-14T13:57:33.027Z,3.10
2018-06-14T14:00:00.422Z,3.13
2018-06-14T14:02:28.052Z,2.27
2018-06-14T14:04:55.425Z,3.13
2018-06-14T14:07:28.158Z,2.77
2018-06-14T14:09:56.607Z,4.07
2018-06-14T14:12:24.887Z,2.87
2018-06-14T14:14:52.299Z,2.30
2018-06-14T14:17:23.102Z,2.60
2018-06-14T14:19:53.806Z,2.20
2018-06-14T14:22:21.298Z,3.43
2018-06-14T14:24:48.719Z,2.30
2018-06-14T14:27:16.125Z,2.43
2018-06-14T14:29:43.576Z,3.97
2018-06-14T14:32:11.055Z,2.67
2018-06-14T14:34:38.485Z,2.40
2018-06-14T14:37:05.934Z,2.63
2018-06-14T14:39:33.273Z,6.90
2018-06-14T14:42:00.861Z,2.83
2018-06-14T14:44:28.293Z,2.70
2018-06-14T14:46:56.571Z,2.77
2018-06-14T14:49:23.964Z,2.37
2018-06-14T14:51:51.635Z,3.23
2018-06-14T14:54:19.011Z,3.77
2018-06-14T14:56:46.427Z,4.00
2018-06-14T14:59:13.909Z,2.97
2018-06-14T15:01:41.404Z,4.67
2018-06-14T15:04:08.921Z,5.20
2018-06-14T15:06:36.440Z,4.70
2018-06-14T15:09:04.531Z,3.40
2018-06-14T15:11:31.900Z,5.60
2018-06-14T15:13:59.277Z,2.20
2018-06-14T15:16:26.798Z,2.40
2018-06-14T15:18:54.167Z,3.70
2018-06-14T15:21:22.404Z,2.83
2018-06-14T15:23:49.799Z,2.97
2018-06-14T15:26:17.247Z,4.40
2018-06-14T15:28:44.659Z,4.60
2018-06-14T15:31:12.048Z,4.97
2018-06-14T15:33:39.499Z,3.37
2018-06-14T15:36:07.059Z,5.33
2018-06-14T15:38:34.515Z,3.33
2018-06-14T15:41:01.915Z,2.93
2018-06-14T15:43:29.384Z,2.70
2018-06-14T15:45:56.889Z,2.73
2018-06-14T15:48:25.253Z,3.23
2018-06-14T15:50:53.213Z,2.60
2018-06-14T15:53:20.803Z,5.70
2018-06-14T15:55:53.612Z,6.03
2018-06-14T15:58:21.003Z,3.60
2018-06-14T16:00:48.524Z,3.20
2018-06-14T16:03:16.483Z,3.10
2018-06-14T16:05:43.975Z,6.30
2018-06-14T16:08:11.395Z,3.67
2018-06-14T16:10:39.263Z,3.13
2018-06-14T16:13:07.141Z,2.33
2018-06-14T16:15:34.527Z,3.93
2018-06-14T16:18:02.512Z,3.03
2018-06-14T16:20:30.694Z,3.53
2018-06-14T16:22:58.203Z,4.63
2018-06-14T16:25:25.623Z,3.83
2018-06-14T16:27:53.499Z,4.17
2018-06-14T16:30:21.040Z,2.70
2018-06-14T16:32:48.447Z,3.33
2018-06-14T16:35:15.829Z,2.90
2018-06-14T16:37:43.341Z,4.77
2018-06-14T16:40:11.254Z,3.20
2018-06-14T16:42:38.704Z,3.13
2018-06-14T16:45:06.305Z,6.40
2018-06-14T16:47:33.735Z,3.63
2018-06-14T16:50:01.131Z,4.40
2018-06-14T16:52:28.824Z,5.00
2018-06-14T16:54:56.247Z,5.23
2018-06-14T16:57:23.710Z,5.37
2018-06-14T16:59:52.394Z,4.07
2018-06-14T17:02:19.839Z,4.03
2018-06-14T17:04:47.584Z,4.87
2018-06-14T17:07:15.111Z,3.33
2018-06-14T17:09:43.442Z,4.57
2018-06-14T17:12:10.857Z,3.70
2018-06-14T17:14:38.263Z,4.37
2018-06-14T17:17:06.456Z,8.27
2018-06-14T17:19:33.963Z,4.37
2018-06-14T17:22:01.403Z,5.23
2018-06-14T17:24:28.862Z,4.13
2018-06-14T17:26:56.976Z,4.60
2018-06-14T17:29:25.239Z,5.27
2018-06-14T17:31:52.720Z,4.20
2018-06-14T17:34:20.166Z,5.13
2018-06-14T17:36:47.655Z,3.23
2018-06-14T17:39:15.819Z,6.20
2018-06-14T17:41:43.840Z,6.87
2018-06-14T17:44:11.275Z,4.67
2018-06-14T17:46:38.760Z,6.30
2018-06-14T17:49:06.212Z,5.73
2018-06-14T17:51:33.652Z,5.67
2018-06-14T17:54:01.172Z,6.43
2018-06-14T17:56:28.687Z,6.40
2018-06-14T17:58:56.185Z,4.77
2018-06-14T18:01:23.654Z,8.77
2018-06-14T18:03:51.760Z,8.70
2018-06-14T18:06:19.301Z,7.03
2018-06-14T18:08:48.373Z,5.37
2018-06-14T18:11:16.140Z,5.73
2018-06-14T18:13:44.183Z,6.17
2018-06-14T18:16:11.683Z,6.50
2018-06-14T18:18:39.192Z,8.13
2018-06-14T18:21:07.210Z,8.30
2018-06-14T18:23:34.656Z,7.80
2018-06-14T18:26:02.083Z,9.83
2018-06-14T18:28:29.496Z,9.20
2018-06-14T18:30:57.007Z,6.70
2018-06-14T18:33:24.463Z,5.43
2018-06-14T18:35:52.048Z,10.50
2018-06-14T18:38:19.734Z,6.70
2018-06-14T18:40:47.143Z,9.03
2018-06-14T18:43:14.595Z,7.13
2018-06-14T18:45:42.683Z,7.10
2018-06-14T18:48:10.136Z,7.70
2018-06-14T18:50:37.582Z,6.77
2018-06-14T18:53:05.581Z,8.23
2018-06-14T18:55:33.095Z,6.07
2018-06-14T18:58:00.640Z,7.03
2018-06-14T19:00:28.053Z,7.80
2018-06-14T19:02:56.172Z,6.97
2018-06-14T19:05:24.242Z,9.93
2018-06-14T19:07:52.161Z,8.40
2018-06-14T19:10:20.183Z,7.63
2018-06-14T19:12:47.615Z,8.80
2018-06-14T19:15:15.072Z,10.70
2018-06-14T19:17:42.807Z,6.63
2018-06-14T19:20:10.427Z,7.73
2018-06-14T19:22:38.004Z,7.93
2018-06-14T19:25:06.281Z,7.97
2018-06-14T19:27:33.731Z,6.73
2018-06-14T19:30:01.656Z,8.27
2018-06-14T19:32:29.269Z,6.27
2018-06-14T19:34:56.735Z,5.70
2018-06-14T19:37:25.720Z,7.13
2018-06-14T19:39:53.515Z,6.07
2018-06-14T19:42:20.909Z,7.07
2018-06-14T19:44:48.295Z,5.57
2018-06-14T19:47:15.927Z,7.33
2018-06-14T19:49:43.360Z,10.20
2018-06-14T19:52:10.764Z,3.30
2018-06-14T19:54:38.216Z,8.37
2018-06-14T19:57:05.679Z,5.00
2018-06-14T19:59:33.135Z,5.80
2018-06-14T20:02:00.667Z,4.93
2018-06-14T20:04:28.057Z,6.17
2018-06-14T20:06:55.572Z,8.23
2018-06-14T20:09:23.041Z,8.07
2018-06-14T20:11:50.471Z,5.23
2018-06-14T20:14:17.865Z,5.07
2018-06-14T20:16:46.023Z,5.57
2018-06-14T20:19:13.399Z,8.40
2018-06-14T20:21:41.859Z,7.97
2018-06-14T20:24:09.236Z,5.83
2018-06-14T20:26:36.717Z,9.63
2018-06-14T20:29:04.156Z,5.73
2018-06-14T20:31:31.648Z,8.07
2018-06-14T20:33:59.149Z,6.07
2018-06-14T20:36:26.520Z,7.50
2018-06-14T20:38:54.922Z,5.33
2018-06-14T20:41:22.324Z,2.30
2018-06-14T20:43:49.799Z,3.93
2018-06-14T20:46:17.271Z,8.23
2018-06-14T20:48:44.770Z,7.30
2018-06-14T20:51:12.163Z,5.37
2018-06-14T20:53:39.539Z,4.93
2018-06-14T20:56:07.115Z,8.50
2018-06-14T20:58:34.549Z,4.30
2018-06-14T21:01:02.891Z,10.03
2018-06-14T21:03:30.439Z,6.13
2018-06-14T21:05:57.845Z,5.83
2018-06-14T21:08:25.316Z,4.63
2018-06-14T21:10:52.719Z,8.27
2018-06-14T21:13:20.116Z,5.33
2018-06-14T21:15:48.012Z,5.00
2018-06-14T21:18:15.394Z,8.43
2018-06-14T21:20:42.779Z,5.87
2018-06-14T21:23:10.381Z,7.10
2018-06-14T21:25:37.806Z,6.40
2018-06-14T21:28:06.258Z,7.27
2018-06-14T21:30:33.627Z,6.00
2018-06-14T21:33:01.101Z,5.43
2018-06-14T21:35:28.580Z,3.20
2018-06-14T21:37:56.632Z,5.90
2018-06-14T21:40:24.085Z,4.70
2018-06-14T21:42:52.465Z,4.73
2018-06-14T21:45:19.919Z,5.40
2018-06-14T21:47:47.807Z,5.97
2018-06-14T21:50:15.927Z,7.20
2018-06-14T21:52:44.135Z,9.07
2018-06-14T21:55:11.624Z,5.30
2018-06-14T21:57:39.047Z,5.17
2018-06-14T22:00:06.867Z,8.47
2018-06-14T22:02:38.590Z,4.23
2018-06-14T22:05:05.993Z,7.63
2018-06-14T22:07:33.569Z,6.77
2018-06-14T22:10:01.781Z,7.50
2018-06-14T22:12:29.381Z,7.00
2018-06-14T22:14:56.868Z,5.90
2018-06-14T22:17:25.537Z,5.30
2018-06-14T22:19:53.276Z,5.47
2018-06-14T22:22:20.710Z,5.73
2018-06-14T22:24:48.212Z,7.30
2018-06-14T22:27:15.671Z,8.67
2018-06-14T22:29:43.407Z,6.17
2018-06-14T22:32:10.854Z,6.37
2018-06-14T22:34:44.241Z,6.67
2018-06-14T22:37:11.717Z,9.87
2018-06-14T22:39:39.164Z,5.27
2018-06-14T22:42:06.641Z,8.73
2018-06-14T22:44:34.195Z,6.40
2018-06-14T22:47:01.625Z,5.47
2018-06-14T22:49:29.644Z,6.50
2018-06-14T22:53:05.848Z,4.87
2018-06-14T22:55:33.590Z,5.67
2018-06-14T22:58:01.063Z,9.50
2018-06-14T23:02:03.668Z,6.53
2018-06-14T23:04:31.748Z,5.20
2018-06-14T23:06:59.544Z,6.00
2018-06-14T23:10:34.251Z,7.10
2018-06-14T23:13:02.038Z,7.90
2018-06-14T23:15:29.441Z,7.43
2018-06-14T23:17:56.923Z,6.27
2018-06-14T23:20:25.580Z,7.93
2018-06-14T23:22:54.303Z,7.00
2018-06-14T23:25:22.679Z,7.07
2018-06-14T23:27:50.088Z,5.07
2018-06-14T23:30:17.871Z,6.87
2018-06-14T23:32:45.655Z,6.27
2018-06-14T23:35:13.061Z,8.43
2018-06-14T23:37:40.627Z,7.83
2018-06-14T23:40:08.032Z,6.03
2018-06-14T23:42:35.425Z,9.37
2018-06-14T23:45:02.911Z,5.90
2018-06-14T23:47:30.287Z,3.47
2018-06-14T23:49:57.850Z,7.30
2018-06-14T23:52:25.290Z,4.27
2018-06-14T23:54:52.751Z,10.63
2018-06-14T23:57:20.511Z,7.63
2018-06-14T23:59:48.243Z,6.03
